Time;durP1;ratioP1;P1;durP2;ratioP2;P2;SDS_P1;SDS_P2;PMS_P1;PMS_P2;Temp;Humidity;BMP_temperature;BMP_pressure;BME280_temperature;BME280_humidity;BME280_pressure;Samples;Min_cycle;Max_cycle;Signal;HPM_P1;HPM_P2
2022/09/24 00:00:58;;;;;;;30.00;15.68;;;;;;;13.09;100.00;101382.19;7379064;19;20044;-71
2022/09/24 00:03:29;;;;;;;31.55;16.25;;;;;;;13.08;100.00;101380.41;7376574;19;20011;-70
2022/09/24 00:06:03;;;;;;;32.00;17.83;;;;;;;13.04;100.00;101376.84;7371764;19;20783;-70
2022/09/24 00:08:33;;;;;;;31.90;16.95;;;;;;;13.01;100.00;101368.94;7375776;19;20026;-69
2022/09/24 00:11:10;;;;;;;31.63;17.17;;;;;;;13.01;100.00;101368.94;7375545;19;20029;-71
2022/09/24 00:13:41;;;;;;;31.88;17.60;;;;;;;12.98;100.00;101371.53;7373537;19;20014;-71
2022/09/24 00:16:13;;;;;;;32.35;16.35;;;;;;;13.00;100.00;101366.28;7376962;19;20127;-69
2022/09/24 00:18:44;;;;;;;29.75;15.63;;;;;;;12.98;100.00;101368.00;7378361;19;20619;-71
2022/09/24 00:21:16;;;;;;;31.45;17.20;;;;;;;12.96;100.00;101364.47;7376350;19;20013;-69
2022/09/24 00:23:46;;;;;;;30.17;16.40;;;;;;;12.98;100.00;101363.63;7382465;19;20006;-69
2022/09/24 00:29:02;;;;;;;28.67;15.15;;;;;;;12.95;100.00;101360.06;7384945;19;20217;-69
2022/09/24 00:31:32;;;;;;;30.10;15.40;;;;;;;12.94;100.00;101356.56;7383726;19;20555;-71
2022/09/24 00:34:03;;;;;;;28.13;15.18;;;;;;;12.91;100.00;101356.50;7382760;19;20492;-71
2022/09/24 00:36:33;;;;;;;28.70;14.98;;;;;;;12.90;100.00;101359.13;7379684;19;20037;-71
2022/09/24 00:39:03;;;;;;;32.00;15.95;;;;;;;12.92;100.00;101357.41;7384083;19;20498;-71
2022/09/24 00:41:38;;;;;;;29.42;14.90;;;;;;;12.91;100.00;101358.25;7382450;19;20053;-70
2022/09/24 00:44:37;;;;;;;28.70;15.15;;;;;;;12.93;100.00;101364.44;7382837;19;20436;-69
2022/09/24 00:47:08;;;;;;;31.50;15.20;;;;;;;12.91;100.00;101353.00;7380755;19;20011;-71
2022/09/24 00:49:39;;;;;;;33.45;17.08;;;;;;;12.92;100.00;101352.13;7385970;19;20586;-71
2022/09/24 00:52:10;;;;;;;27.90;15.18;;;;;;;12.92;100.00;101357.41;7381617;19;20011;-71
2022/09/24 00:54:40;;;;;;;31.35;16.58;;;;;;;12.91;100.00;101351.25;7381834;19;20020;-71
2022/09/24 00:57:13;;;;;;;29.88;14.38;;;;;;;12.90;100.00;101360.00;7385299;19;20050;-71
2022/09/24 00:59:45;;;;;;;33.92;16.92;;;;;;;12.93;100.00;101348.63;7384494;19;20565;-71
2022/09/24 01:02:15;;;;;;;30.00;15.50;;;;;;;12.93;100.00;101341.63;7380549;19;20021;-68
2022/09/24 01:04:47;;;;;;;27.83;14.60;;;;;;;12.94;100.00;101346.03;7378595;19;20253;-69
2022/09/24 01:07:20;;;;;;;26.83;15.43;;;;;;;12.93;100.00;101339.00;7380091;19;20022;-69
2022/09/24 01:09:50;;;;;;;32.13;16.80;;;;;;;12.93;100.00;101344.25;7381252;19;20007;-69
2022/09/24 01:12:32;;;;;;;30.92;16.77;;;;;;;12.88;100.00;101339.81;7381428;19;20006;-70
2022/09/24 01:15:14;;;;;;;29.83;15.98;;;;;;;12.88;100.00;101339.81;7382581;19;20014;-68
2022/09/24 01:17:51;;;;;;;29.63;15.82;;;;;;;12.86;100.00;101334.53;7382956;19;20025;-70
2022/09/24 01:20:50;;;;;;;28.23;15.40;;;;;;;12.86;100.00;101337.16;7379799;19;20021;-69
2022/09/24 01:23:45;;;;;;;32.83;15.55;;;;;;;12.86;100.00;101331.00;7379625;19;20010;-69
2022/09/24 01:26:35;;;;;;;28.75;14.90;;;;;;;12.86;100.00;101325.75;7377655;19;20015;-69
2022/09/24 01:29:44;;;;;;;30.15;14.77;;;;;;;12.85;100.00;101327.50;7382321;19;20078;-69
2022/09/24 01:32:21;;;;;;;30.02;15.10;;;;;;;12.83;100.00;101330.97;7382453;19;20015;-67
2022/09/24 01:34:56;;;;;;;31.73;15.38;;;;;;;12.83;100.00;101325.69;7379191;19;20007;-70
2022/09/24 01:37:29;;;;;;;34.55;16.08;;;;;;;12.81;100.00;101322.16;7378821;19;20014;-69
2022/09/24 01:40:00;;;;;;;30.10;16.48;;;;;;;12.81;100.00;101315.16;7381539;19;20018;-68
2022/09/24 01:42:32;;;;;;;29.30;15.82;;;;;;;12.78;100.00;101312.50;7380697;19;20355;-67
2022/09/24 01:45:05;;;;;;;30.58;15.13;;;;;;;12.81;100.00;101309.00;7380272;19;20011;-69
2022/09/24 01:47:38;;;;;;;28.77;15.15;;;;;;;12.81;100.00;101307.25;7379582;19;20499;-67
2022/09/24 01:50:10;;;;;;;33.70;16.92;;;;;;;12.86;100.00;101302.03;7380192;19;20070;-67
2022/09/24 01:52:45;;;;;;;30.52;15.40;;;;;;;12.83;100.00;101299.38;7376258;19;20019;-69
2022/09/24 01:55:20;;;;;;;32.58;15.63;;;;;;;12.78;100.00;101296.69;7369773;19;20026;-69
2022/09/24 01:57:55;;;;;;;31.70;15.40;;;;;;;12.74;100.00;101298.41;7377031;19;20014;-67
2022/09/24 02:00:28;;;;;;;32.47;14.80;;;;;;;12.75;100.00;101292.28;7380985;19;20034;-66
2022/09/24 02:03:07;;;;;;;32.17;15.07;;;;;;;12.75;100.00;101299.28;7379141;19;20369;-70
2022/09/24 02:05:43;;;;;;;32.15;17.25;;;;;;;12.75;100.00;101287.00;7376660;19;20006;-67
2022/09/24 02:08:18;;;;;;;30.20;16.20;;;;;;;12.77;100.00;101284.41;7379102;19;20025;-67
2022/09/24 02:10:51;;;;;;;35.97;16.75;;;;;;;12.77;100.00;101285.28;7377658;19;20017;-67
2022/09/24 02:13:25;;;;;;;33.35;16.58;;;;;;;12.79;100.00;101285.31;7378620;19;20006;-67
2022/09/24 02:16:01;;;;;;;41.28;19.50;;;;;;;12.76;100.00;101280.88;7378754;19;20010;-67
2022/09/24 02:18:36;;;;;;;38.90;18.08;;;;;;;12.79;100.00;101285.31;7377586;19;20114;-67
2022/09/24 02:21:11;;;;;;;35.35;16.92;;;;;;;12.77;100.00;101280.03;7376831;19;20007;-67
2022/09/24 02:23:45;;;;;;;35.17;17.30;;;;;;;12.75;100.00;101276.50;7376621;19;20021;-67
2022/09/24 02:26:15;;;;;;;38.83;16.75;;;;;;;12.77;100.00;101274.75;7378824;19;20014;-67
2022/09/24 02:28:45;;;;;;;38.25;17.50;;;;;;;12.78;100.00;101271.25;7381253;19;20104;-67
2022/09/24 02:31:21;;;;;;;39.97;19.25;;;;;;;12.80;100.00;101273.03;7379490;19;20014;-67
2022/09/24 02:36:35;;;;;;;36.50;18.73;;;;;;;12.75;100.00;101265.97;7380438;19;20018;-67
2022/09/24 02:39:05;;;;;;;37.60;18.00;;;;;;;12.69;100.00;101263.25;7380632;19;20340;-67
2022/09/24 02:41:36;;;;;;;36.47;17.92;;;;;;;12.69;100.00;101265.88;7379089;19;20116;-67
2022/09/24 02:44:05;;;;;;;38.33;18.02;;;;;;;12.71;100.00;101274.69;7376691;19;20010;-67
2022/09/24 02:46:40;;;;;;;36.47;16.98;;;;;;;12.70;100.00;101270.28;7375048;19;20019;-68
2022/09/24 02:49:10;;;;;;;41.88;19.02;;;;;;;12.68;100.00;101269.38;7377342;19;20018;-69
2022/09/24 02:51:40;;;;;;;39.15;17.73;;;;;;;12.67;100.00;101266.75;7377212;19;20014;-68
2022/09/24 02:54:12;;;;;;;34.75;16.95;;;;;;;12.68;100.00;101264.13;7376581;19;20018;-69
2022/09/24 02:56:42;;;;;;;41.25;18.00;;;;;;;12.69;100.00;101271.16;7376519;19;20022;-69
2022/09/24 02:59:12;;;;;;;39.67;18.63;;;;;;;12.71;100.00;101269.44;7376355;19;20038;-69
2022/09/24 03:01:45;;;;;;;38.70;18.45;;;;;;;12.70;100.00;101262.41;7375322;19;20054;-69
2022/09/24 03:04:15;;;;;;;41.10;18.88;;;;;;;12.72;100.00;101268.56;7378031;19;20018;-69
2022/09/24 03:06:45;;;;;;;35.58;16.48;;;;;;;12.72;100.00;101265.03;7377918;19;20039;-67
2022/09/24 03:09:18;;;;;;;32.97;16.02;;;;;;;12.72;100.00;101265.03;7376400;19;20021;-68
2022/09/24 03:11:49;;;;;;;40.63;20.05;;;;;;;12.70;100.00;101261.50;7378115;19;20026;-67
2022/09/24 03:14:18;;;;;;;31.17;15.05;;;;;;;12.72;100.00;101260.66;7378922;19;20014;-67
2022/09/24 03:16:50;;;;;;;35.22;16.88;;;;;;;12.73;100.00;101265.06;7377805;19;20514;-68
2022/09/24 03:19:20;;;;;;;37.97;18.17;;;;;;;12.73;100.00;101265.06;7378136;19;20786;-67
2022/09/24 03:21:50;;;;;;;41.33;18.48;;;;;;;12.74;100.00;101263.31;7376531;19;20014;-67
2022/09/24 03:24:19;;;;;;;38.42;18.05;;;;;;;12.74;100.00;101261.56;7377619;19;20047;-67
2022/09/24 03:26:49;;;;;;;36.65;17.73;;;;;;;12.75;100.00;101255.44;7377558;19;20014;-67
2022/09/24 03:30:58;;;;;;;36.80;17.25;;;;;;;12.77;100.00;101263.34;7376629;19;20014;-67
2022/09/24 03:32:08;;;;;;;35.55;17.35;;;;;;;12.76;100.00;101251.06;7375546;19;20018;-67
2022/09/24 03:34:38;;;;;;;36.63;16.77;;;;;;;12.75;100.00;101250.16;7377651;19;20487;-67
2022/09/24 03:37:07;;;;;;;30.80;14.82;;;;;;;12.79;100.00;101256.34;7374630;19;20393;-67
2022/09/24 03:39:37;;;;;;;35.22;16.83;;;;;;;12.83;100.00;101257.25;7376264;19;20007;-68
2022/09/24 03:42:07;;;;;;;35.63;17.27;;;;;;;12.83;100.00;101252.00;7380523;19;20010;-67
2022/09/24 03:44:36;;;;;;;38.75;18.40;;;;;;;12.81;100.00;101251.09;7375280;19;20032;-68
2022/09/24 03:47:07;;;;;;;35.95;16.63;;;;;;;12.83;100.00;101258.16;7373648;19;20018;-67
2022/09/24 03:49:39;;;;;;;39.60;17.08;;;;;;;12.85;100.00;101258.16;7377054;19;20014;-67
2022/09/24 03:52:08;;;;;;;36.15;16.80;;;;;;;12.84;100.00;101262.53;7374120;19;20047;-67
2022/09/24 03:54:38;;;;;;;34.72;17.33;;;;;;;12.84;100.00;101262.53;7374558;19;20076;-67
2022/09/24 03:57:07;;;;;;;38.97;16.85;;;;;;;12.83;100.00;101260.78;7374421;19;20610;-67
2022/09/24 03:59:37;;;;;;;36.80;17.73;;;;;;;12.85;100.00;101258.16;7377939;19;20007;-67
2022/09/24 04:02:07;;;;;;;36.80;17.50;;;;;;;12.84;100.00;101262.53;7375339;19;20010;-67
2022/09/24 04:04:39;;;;;;;42.40;18.02;;;;;;;12.87;100.00;101259.94;7376041;19;20013;-67
2022/09/24 04:07:09;;;;;;;40.13;17.63;;;;;;;12.87;100.00;101264.31;7372337;19;20018;-67
2022/09/24 04:09:39;;;;;;;36.40;16.52;;;;;;;12.89;100.00;101254.69;7374953;19;20011;-67
2022/09/24 04:12:09;;;;;;;34.25;15.98;;;;;;;12.90;100.00;101253.84;7373449;19;20014;-67
2022/09/24 04:14:38;;;;;;;40.22;16.73;;;;;;;12.90;100.00;101249.44;7375811;19;20059;-67
2022/09/24 04:17:08;;;;;;;39.70;18.95;;;;;;;12.90;100.00;101252.09;7377286;19;20026;-67
2022/09/24 04:19:40;;;;;;;35.95;16.02;;;;;;;12.90;100.00;101246.81;7376837;19;20688;-67
2022/09/24 04:22:10;;;;;;;36.85;17.52;;;;;;;12.92;100.00;101246.84;7376222;19;20344;-68
2022/09/24 04:24:40;;;;;;;40.53;20.00;;;;;;;12.92;100.00;101249.47;7376465;19;20014;-69
2022/09/24 04:27:09;;;;;;;41.03;17.98;;;;;;;12.92;100.00;101252.09;7378206;19;20550;-67
2022/09/24 04:29:39;;;;;;;41.40;19.67;;;;;;;12.91;100.00;101250.34;7377170;19;20014;-68
2022/09/24 04:32:08;;;;;;;41.65;20.17;;;;;;;12.90;100.00;101246.81;7375892;19;20015;-67
2022/09/24 04:34:41;;;;;;;42.83;20.08;;;;;;;12.91;100.00;101245.06;7373755;19;20437;-67
2022/09/24 04:37:10;;;;;;;41.17;20.50;;;;;;;12.91;100.00;101242.44;7375573;19;20011;-69
2022/09/24 04:39:40;;;;;;;46.15;20.25;;;;;;;12.92;100.00;101241.56;7374954;19;20305;-67
2022/09/24 04:42:10;;;;;;;44.95;19.38;;;;;;;12.93;100.00;101253.88;7372962;19;20018;-67
2022/09/24 04:44:39;;;;;;;45.33;20.80;;;;;;;12.91;100.00;101250.34;7374576;19;20014;-68
2022/09/24 04:47:10;;;;;;;57.30;24.77;;;;;;;12.89;100.00;101250.31;7372797;19;20018;-68
2022/09/24 04:49:44;;;;;;;42.22;20.73;;;;;;;12.90;100.00;101257.34;7370467;19;20026;-68
2022/09/24 04:52:15;;;;;;;52.15;22.85;;;;;;;12.90;100.00;101256.47;7372467;19;20261;-68
2022/09/24 04:54:46;;;;;;;54.08;24.50;;;;;;;12.88;100.00;101260.81;7373760;19;20018;-68
2022/09/24 04:57:16;;;;;;;49.13;21.20;;;;;;;12.92;100.00;101260.00;7379120;19;20029;-68
2022/09/24 04:59:46;;;;;;;56.92;25.38;;;;;;;12.91;100.00;101267.00;7372567;19;20022;-68
2022/09/24 05:02:16;;;;;;;54.72;23.52;;;;;;;12.89;100.00;101266.09;7371697;19;20108;-68
2022/09/24 05:04:48;;;;;;;55.45;23.25;;;;;;;12.88;100.00;101255.56;7375193;19;20015;-70
2022/09/24 05:07:18;;;;;;;48.55;21.45;;;;;;;12.90;100.00;101264.34;7368794;19;20018;-68
2022/09/24 05:09:48;;;;;;;50.53;21.17;;;;;;;12.90;100.00;101257.34;7380039;19;20010;-67
2022/09/24 05:12:19;;;;;;;50.08;22.20;;;;;;;12.93;100.00;101256.50;7379175;19;20504;-69
2022/09/24 05:14:49;;;;;;;44.88;20.40;;;;;;;12.91;100.00;101260.88;7384520;19;20018;-69
2022/09/24 05:17:19;;;;;;;49.05;20.42;;;;;;;12.92;100.00;101260.88;7381731;19;20014;-68
2022/09/24 05:19:51;;;;;;;45.65;20.83;;;;;;;12.91;100.00;101259.13;7379676;19;20011;-67
2022/09/24 05:22:21;;;;;;;41.10;18.88;;;;;;;12.92;100.00;101260.00;7377915;19;20010;-67
2022/09/24 05:24:50;;;;;;;43.67;19.45;;;;;;;12.91;100.00;101263.50;7382653;19;20081;-68
2022/09/24 05:27:18;;;;;;;43.92;18.60;;;;;;;12.87;100.00;101259.06;7377745;19;20479;-67
2022/09/24 05:29:49;;;;;;;44.17;18.40;;;;;;;12.87;100.00;101259.94;7380620;19;20017;-67
2022/09/24 05:32:22;;;;;;;41.80;17.80;;;;;;;12.90;100.00;101265.25;7379246;19;20002;-67
2022/09/24 05:34:54;;;;;;;37.70;16.13;;;;;;;12.94;100.00;101263.53;7380730;19;20017;-68
2022/09/24 05:37:24;;;;;;;33.25;14.68;;;;;;;12.94;100.00;101258.25;7379604;19;20018;-68
2022/09/24 05:39:54;;;;;;;32.28;15.20;;;;;;;12.95;100.00;101270.56;7380043;19;20271;-68
2022/09/24 05:42:23;;;;;;;35.20;15.35;;;;;;;12.98;100.00;101273.22;7381098;19;20026;-68
2022/09/24 05:44:54;;;;;;;32.65;16.13;;;;;;;13.04;100.00;101270.66;7377933;19;20566;-68
2022/09/24 05:47:23;;;;;;;38.25;18.23;;;;;;;13.07;100.00;101278.59;7381480;19;20462;-67
2022/09/24 05:49:55;;;;;;;34.58;15.82;;;;;;;13.07;100.00;101273.31;7383019;19;20025;-67
2022/09/24 05:52:25;;;;;;;32.67;15.73;;;;;;;13.08;100.00;101275.09;7381121;19;20365;-67
2022/09/24 05:54:55;;;;;;;29.75;14.15;;;;;;;13.05;100.00;101270.66;7383521;19;20010;-67
2022/09/24 05:57:24;;;;;;;35.25;15.48;;;;;;;13.04;100.00;101275.91;7382197;19;20024;-67
2022/09/24 05:59:55;;;;;;;27.65;12.52;;;;;;;13.02;100.00;101282.91;7386363;19;20045;-67
2022/09/24 06:02:24;;;;;;;24.23;11.52;;;;;;;12.98;100.00;101283.75;7383472;19;20018;-67
2022/09/24 06:04:56;;;;;;;21.77;9.90;;;;;;;13.00;100.00;101282.03;7382546;19;20010;-67
2022/09/24 06:07:26;;;;;;;15.88;8.45;;;;;;;13.00;100.00;101287.28;7383320;19;20041;-67
2022/09/24 06:09:58;;;;;;;14.05;7.25;;;;;;;13.02;100.00;101296.09;7383251;19;20006;-67
2022/09/24 06:12:27;;;;;;;15.70;6.50;;;;;;;13.01;100.00;101299.59;7383313;19;20006;-67
2022/09/24 06:14:57;;;;;;;10.25;4.90;;;;;;;12.97;100.00;101290.78;7382467;19;20010;-68
2022/09/24 06:17:27;;;;;;;9.50;3.95;;;;;;;13.03;100.00;101308.38;7382185;19;20018;-70
2022/09/24 06:19:59;;;;;;;7.93;3.08;;;;;;;13.01;100.00;101300.47;7375682;19;20009;-67
2022/09/24 06:22:29;;;;;;;8.77;3.88;;;;;;;13.04;100.00;101304.88;7376446;19;20017;-67
2022/09/24 06:24:59;;;;;;;8.23;3.30;;;;;;;13.06;100.00;101318.94;7376107;19;20011;-67
2022/09/24 06:27:28;;;;;;;7.63;3.42;;;;;;;13.07;100.00;101311.06;7379532;19;20015;-69
2022/09/24 06:29:58;;;;;;;7.72;3.58;;;;;;;13.07;100.00;101316.34;7379821;19;20015;-67
2022/09/24 06:32:28;;;;;;;9.40;4.38;;;;;;;13.09;100.00;101311.97;7376809;19;20019;-67
2022/09/24 06:35:02;;;;;;;8.63;3.30;;;;;;;13.07;100.00;101321.59;7377679;19;20030;-67
2022/09/24 06:37:32;;;;;;;12.50;3.60;;;;;;;13.12;100.00;101320.75;7378493;19;20007;-67
2022/09/24 06:40:03;;;;;;;8.13;3.45;;;;;;;13.10;100.00;101318.13;7379633;19;20018;-67
2022/09/24 06:42:32;;;;;;;9.93;3.72;;;;;;;13.11;100.00;101322.50;7378305;19;20417;-70
2022/09/24 06:45:03;;;;;;;11.07;4.45;;;;;;;13.08;100.00;101322.47;7379369;19;20033;-68
2022/09/24 06:47:32;;;;;;;11.85;4.55;;;;;;;13.08;100.00;101323.38;7376543;19;20484;-67
2022/09/24 06:50:05;;;;;;;13.00;5.35;;;;;;;13.08;100.00;101322.47;7376328;19;20014;-68
2022/09/24 06:52:35;;;;;;;13.93;5.33;;;;;;;13.09;100.00;101319.88;7373210;19;20494;-68
2022/09/24 06:55:04;;;;;;;10.60;4.60;;;;;;;13.12;100.00;101324.28;7375798;19;20014;-68
2022/09/24 06:57:34;;;;;;;14.20;4.90;;;;;;;13.22;100.00;101330.56;7375617;19;20017;-68
2022/09/24 07:00:04;;;;;;;14.50;4.45;;;;;;;13.24;100.00;101329.72;7379559;19;20078;-67
2022/09/24 07:02:33;;;;;;;12.95;4.55;;;;;;;13.21;100.00;101328.78;7379825;19;20015;-67
2022/09/24 07:05:07;;;;;;;18.70;5.72;;;;;;;13.23;100.00;101327.94;7382188;19;20035;-67
2022/09/24 07:07:37;;;;;;;8.60;3.83;;;;;;;13.26;100.00;101335.88;7380347;19;20014;-68
2022/09/24 07:10:09;;;;;;;12.02;3.83;;;;;;;13.25;100.00;101326.22;7380861;19;20353;-68
2022/09/24 07:12:39;;;;;;;11.32;3.78;;;;;;;13.26;100.00;101341.16;7380759;19;20270;-68
2022/09/24 07:15:10;;;;;;;15.20;4.22;;;;;;;13.29;100.00;101340.28;7375665;19;20021;-69
2022/09/24 07:17:40;;;;;;;12.00;4.32;;;;;;;13.27;100.00;101342.91;7377315;19;20109;-69
2022/09/24 07:20:13;;;;;;;14.50;4.65;;;;;;;13.27;100.00;101340.28;7376795;19;20033;-69
2022/09/24 07:22:43;;;;;;;13.13;4.07;;;;;;;13.24;100.00;101345.50;7378646;19;20041;-69
2022/09/24 07:25:13;;;;;;;13.18;3.75;;;;;;;13.24;100.00;101355.16;7373472;19;20015;-69
2022/09/24 07:27:43;;;;;;;12.80;3.63;;;;;;;13.25;100.00;101360.44;7375619;19;20020;-69
2022/09/24 07:30:15;;;;;;;12.55;5.10;;;;;;;13.26;100.00;101358.69;7378572;19;20375;-69
2022/09/24 07:32:45;;;;;;;9.63;4.13;;;;;;;13.30;100.00;101360.50;7381711;19;20032;-69
2022/09/24 07:35:19;;;;;;;12.57;3.90;;;;;;;13.23;100.00;101364.81;7381823;19;20030;-69
2022/09/24 07:37:49;;;;;;;9.65;3.45;;;;;;;13.24;100.00;101363.94;7380223;19;20039;-69
2022/09/24 07:40:22;;;;;;;11.32;2.90;;;;;;;13.15;100.00;101366.44;7378676;19;20017;-69
2022/09/24 07:42:53;;;;;;;12.43;2.88;;;;;;;13.20;100.00;101374.44;7375222;19;20113;-69
2022/09/24 07:45:23;;;;;;;13.40;3.13;;;;;;;13.15;100.00;101376.97;7376316;19;20044;-69
2022/09/24 07:47:59;;;;;;;10.70;3.20;;;;;;;13.17;100.00;101372.66;7374246;19;20573;-70
2022/09/24 07:50:34;;;;;;;8.95;4.03;;;;;;;13.13;100.00;101372.56;7376808;19;20015;-69
2022/09/24 07:53:05;;;;;;;19.88;3.92;;;;;;;13.14;100.00;101376.97;7371083;19;20045;-69
2022/09/24 07:55:39;;;;;;;10.02;3.33;;;;;;;13.12;100.00;101376.06;7372233;19;20011;-69
2022/09/24 07:58:12;;;;;;;10.60;3.28;;;;;;;13.08;100.00;101375.16;7370152;19;20011;-69
2022/09/24 08:00:42;;;;;;;11.27;3.30;;;;;;;13.09;100.00;101384.81;7373456;19;20007;-68
2022/09/24 08:03:12;;;;;;;18.25;3.33;;;;;;;13.01;100.00;101379.47;7371668;19;20015;-69
2022/09/24 08:05:48;;;;;;;14.48;3.60;;;;;;;13.01;100.00;101375.94;7371244;19;20049;-69
2022/09/24 08:08:19;;;;;;;15.05;3.20;;;;;;;13.08;100.00;101383.94;7374295;19;20644;-68
2022/09/24 08:10:49;;;;;;;11.18;3.10;;;;;;;13.07;100.00;101384.78;7371811;19;20007;-70
2022/09/24 08:13:18;;;;;;;9.43;3.22;;;;;;;13.09;100.00;101387.44;7373952;19;20011;-70
2022/09/24 08:15:58;;;;;;;11.75;2.90;;;;;;;13.07;100.00;101391.81;7370782;19;20026;-70
2022/09/24 08:18:32;;;;;;;8.77;3.15;;;;;;;13.08;100.00;101401.47;7372741;19;20014;-70
2022/09/24 08:21:08;;;;;;;10.27;3.47;;;;;;;13.12;100.00;101405.91;7375084;19;20014;-70
2022/09/24 08:23:38;;;;;;;16.17;3.65;;;;;;;13.11;100.00;101412.06;7369300;19;20066;-70
2022/09/24 08:26:08;;;;;;;16.88;3.63;;;;;;;13.17;100.00;101408.63;7368005;19;20229;-71
2022/09/24 08:28:40;;;;;;;10.10;3.45;;;;;;;13.21;100.00;101413.97;7370722;19;20018;-70
2022/09/24 08:31:13;;;;;;;9.52;3.42;;;;;;;13.26;100.00;101416.66;7372567;19;20018;-70
2022/09/24 08:33:45;;;;;;;13.03;3.40;;;;;;;13.32;100.00;101416.72;7378051;19;20007;-68
2022/09/24 08:36:17;;;;;;;12.93;3.00;;;;;;;13.30;100.00;101424.59;7381080;19;20756;-68
2022/09/24 08:38:48;;;;;;;11.57;2.83;;;;;;;13.36;100.00;101427.31;7379446;19;20014;-68
2022/09/24 08:41:46;;;;;;;11.15;3.28;;;;;;;13.36;100.00;101429.94;7374431;19;20025;-69
2022/09/24 08:47:21;;;;;;;13.85;4.28;;;;;;;13.36;100.00;101429.06;7377326;19;20317;-69
2022/09/24 08:47:22;;;;;;;8.65;3.33;;;;;;;13.40;100.00;101431.75;7386546;19;20019;-70
2022/09/24 08:50:00;;;;;;;13.02;3.05;;;;;;;13.44;100.00;101437.06;7381561;19;20019;-69
2022/09/24 08:52:52;;;;;;;12.43;3.47;;;;;;;13.51;100.00;101436.25;7382572;19;20021;-68
2022/09/24 08:55:30;;;;;;;10.55;3.42;;;;;;;13.56;100.00;101434.50;7382765;19;20022;-68
2022/09/24 08:58:10;;;;;;;7.03;2.72;;;;;;;13.60;100.00;101433.69;7386114;19;20011;-70
2022/09/24 09:00:45;;;;;;;6.75;2.47;;;;;;;13.68;100.00;101439.91;7384767;19;20014;-68
2022/09/24 09:03:25;;;;;;;14.98;2.90;;;;;;;13.67;100.00;101446.94;7386499;19;20018;-68
2022/09/24 09:06:00;;;;;;;12.77;2.90;;;;;;;13.73;100.00;101435.56;7384868;19;20015;-68
2022/09/24 09:08:38;;;;;;;9.57;2.90;;;;;;;13.75;100.00;101449.66;7384655;19;20011;-68
2022/09/24 09:11:33;;;;;;;8.23;2.53;;;;;;;13.82;100.00;101446.22;7384183;19;20014;-70
2022/09/24 09:14:09;;;;;;;15.75;3.78;;;;;;;13.84;100.00;101441.84;7385855;19;20011;-68
2022/09/24 09:16:47;;;;;;;10.50;2.67;;;;;;;13.84;100.00;101449.75;7385959;19;20048;-70
2022/09/24 09:19:19;;;;;;;5.68;2.20;;;;;;;13.82;100.00;101454.13;7386866;19;20007;-68
2022/09/24 09:21:54;;;;;;;8.05;2.58;;;;;;;13.88;100.00;101446.25;7381500;19;20011;-67
2022/09/24 09:24:37;;;;;;;6.55;2.40;;;;;;;13.91;100.00;101446.28;7378876;19;20015;-67
2022/09/24 09:27:13;;;;;;;6.65;2.70;;;;;;;13.89;100.00;101455.94;7379378;19;20261;-67
2022/09/24 09:29:45;;;;;;;10.35;3.65;;;;;;;13.89;100.00;101458.56;7376839;19;20572;-67
2022/09/24 09:32:30;;;;;;;9.23;2.60;;;;;;;13.87;100.00;101460.31;7379620;19;20010;-66
2022/09/24 09:35:06;;;;;;;7.30;2.63;;;;;;;13.98;100.00;101457.78;7377415;19;20014;-66
2022/09/24 09:37:42;;;;;;;16.73;3.58;;;;;;;14.01;100.00;101460.44;7375685;19;20010;-67
2022/09/24 09:40:29;;;;;;;9.55;2.40;;;;;;;13.99;100.00;101449.88;7378228;19;20003;-66
2022/09/24 09:43:03;;;;;;;12.93;3.08;;;;;;;14.05;100.00;101457.84;7378588;19;20010;-66
2022/09/24 09:45:39;;;;;;;12.50;3.25;;;;;;;14.07;100.00;101463.13;7374843;19;20015;-66
2022/09/24 09:48:13;;;;;;;13.20;2.90;;;;;;;14.06;100.00;101462.25;7381673;19;20097;-66
2022/09/24 09:50:46;;;;;;;8.10;2.53;;;;;;;14.09;100.00;101469.31;7382923;19;20018;-66
2022/09/24 09:53:23;;;;;;;6.88;2.60;;;;;;;14.11;100.00;101471.97;7379593;19;20025;-66
2022/09/24 09:55:58;;;;;;;7.20;2.15;;;;;;;14.10;100.00;101475.47;7383581;19;20454;-66
2022/09/24 09:58:30;;;;;;;8.65;2.30;;;;;;;14.12;100.00;101481.66;7379269;19;20017;-66
2022/09/24 10:01:09;;;;;;;7.57;2.08;;;;;;;14.06;100.00;101475.44;7379845;19;20010;-66
2022/09/24 10:03:50;;;;;;;12.93;2.45;;;;;;;14.03;100.00;101471.91;7377677;19;20017;-66
2022/09/24 10:06:26;;;;;;;7.10;2.00;;;;;;;14.03;100.00;101483.31;7382159;19;20022;-66
2022/09/24 10:09:06;;;;;;;10.52;2.85;;;;;;;13.99;100.00;101470.97;7384811;19;20017;-66
2022/09/24 10:11:39;;;;;;;8.95;3.30;;;;;;;13.93;100.00;101473.56;7384130;19;20082;-66
2022/09/24 10:14:13;;;;;;;8.77;2.58;;;;;;;13.94;100.00;101477.97;7382571;19;20507;-66
2022/09/24 10:16:45;;;;;;;7.93;2.28;;;;;;;13.92;100.00;101471.78;7384325;19;20018;-66
2022/09/24 10:19:23;;;;;;;10.00;2.55;;;;;;;14.00;100.00;101472.75;7382631;19;20021;-69
2022/09/24 10:21:56;;;;;;;14.98;5.25;;;;;;;14.05;100.00;101480.72;7383327;19;20106;-68
2022/09/24 10:24:28;;;;;;;6.55;2.40;;;;;;;14.05;100.00;101480.72;7381843;19;20014;-69
2022/09/24 10:27:00;;;;;;;7.80;2.25;;;;;;;14.05;100.00;101485.97;7382399;19;20014;-69
2022/09/24 10:32:20;;;;;;;16.23;4.00;;;;;;;14.11;100.00;101485.16;7384758;19;20022;-69
2022/09/24 10:34:58;;;;;;;9.82;3.35;;;;;;;14.18;100.00;101479.06;7382567;19;20017;-68
2022/09/24 10:37:28;;;;;;;7.80;2.47;;;;;;;14.16;100.00;101479.06;7383231;19;20006;-68
2022/09/24 10:40:01;;;;;;;9.52;2.38;;;;;;;14.20;100.00;101482.59;7382719;19;20073;-69
2022/09/24 10:42:34;;;;;;;9.40;2.30;;;;;;;14.23;100.00;101474.72;7382813;19;20014;-68
2022/09/24 10:45:05;;;;;;;10.20;2.28;;;;;;;14.32;100.00;101480.06;7380606;19;20018;-69
2022/09/24 10:47:43;;;;;;;9.85;2.40;;;;;;;14.36;100.00;101488.00;7382983;19;20018;-69
2022/09/24 10:50:28;;;;;;;6.05;2.90;;;;;;;14.36;100.00;101492.41;7381627;19;20034;-70
2022/09/24 10:53:05;;;;;;;8.30;2.40;;;;;;;14.42;100.00;101492.50;7374864;19;20010;-69
2022/09/24 10:55:56;;;;;;;5.30;2.28;;;;;;;14.45;100.00;101483.72;7381298;19;20015;-69
2022/09/24 10:58:44;;;;;;;7.85;2.40;;;;;;;14.59;100.00;101496.13;7380795;19;20013;-69
2022/09/24 11:01:19;;;;;;;5.57;1.85;;;;;;;14.61;100.00;101486.44;7381700;19;20029;-69
2022/09/24 11:04:16;;;;;;;7.63;2.15;;;;;;;14.72;100.00;101489.16;7381971;19;20082;-69
2022/09/24 11:07:06;;;;;;;10.55;3.05;;;;;;;14.71;100.00;101492.69;7380841;19;20021;-69
2022/09/24 11:09:43;;;;;;;5.22;2.00;;;;;;;14.77;100.00;101500.63;7382535;19;20006;-69
2022/09/24 11:12:22;;;;;;;5.88;1.73;;;;;;;14.71;100.00;101490.91;7383404;19;20022;-70
2022/09/24 11:15:18;;;;;;;11.40;3.00;;;;;;;14.81;100.00;101496.25;7382660;19;20018;-69
2022/09/24 11:18:01;;;;;;;6.25;2.88;;;;;;;14.83;100.00;101502.44;7380634;19;20018;-70
2022/09/24 11:20:38;;;;;;;5.53;1.90;;;;;;;14.84;100.00;101504.19;7381752;19;20022;-69
2022/09/24 11:23:34;;;;;;;9.13;1.98;;;;;;;14.86;100.00;101502.47;7379029;19;20456;-69
2022/09/24 11:26:12;;;;;;;12.05;2.38;;;;;;;14.94;100.00;101503.38;7378606;19;20010;-69
2022/09/24 11:29:03;;;;;;;10.73;2.17;;;;;;;14.95;100.00;101505.16;7376926;19;20021;-69
2022/09/24 11:31:42;;;;;;;7.07;1.88;;;;;;;14.93;100.00;101506.91;7375203;19;20500;-69
2022/09/24 11:34:43;;;;;;;8.77;2.67;;;;;;;15.10;100.00;101505.25;7377778;19;20116;-70
2022/09/24 11:37:27;;;;;;;8.07;2.35;;;;;;;15.12;100.00;101506.13;7377404;19;20015;-68
2022/09/24 11:40:10;;;;;;;8.90;2.40;;;;;;;15.13;100.00;101501.72;7377093;19;20011;-71
2022/09/24 11:43:01;;;;;;;7.13;2.13;;;;;;;15.25;100.00;101515.00;7380358;19;20022;-70
2022/09/24 11:45:53;;;;;;;6.00;1.92;;;;;;;15.19;100.00;101515.84;7375368;19;20014;-70